Time;durP1;ratioP1;P1;durP2;ratioP2;P2;SDS_P1;SDS_P2;PMS_P1;PMS_P2;Temp;Humidity;BMP_temperature;BMP_pressure;BME280_temperature;BME280_humidity;BME280_pressure;Samples;Min_cycle;Max_cycle;Signal;HPM_P1;HPM_P2
2023/06/01 00:01:43;;;;;;;6.45;5.93;;;19.70;47.00;;;;;;5034945;28;20198;-87
2023/06/01 00:04:09;;;;;;;6.43;5.82;;;19.80;47.10;;;;;;5036120;28;20683;-85
2023/06/01 00:06:35;;;;;;;5.90;5.50;;;19.80;46.40;;;;;;5036467;28;20302;-85
2023/06/01 00:09:02;;;;;;;6.20;5.70;;;19.80;46.00;;;;;;5036905;28;20181;-86
2023/06/01 00:11:28;;;;;;;6.05;5.55;;;19.90;46.00;;;;;;5036375;28;20173;-86
2023/06/01 00:13:53;;;;;;;6.00;5.60;;;19.80;47.40;;;;;;5036509;28;20184;-86
2023/06/01 00:16:19;;;;;;;7.20;5.70;;;19.50;48.40;;;;;;5036428;28;20200;-87
2023/06/01 00:18:45;;;;;;;5.95;5.03;;;19.30;49.30;;;;;;5036795;28;20184;-86
2023/06/01 00:21:11;;;;;;;6.00;5.50;;;19.30;50.20;;;;;;5035003;28;20186;-86
2023/06/01 00:23:40;;;;;;;5.80;5.40;;;19.40;49.60;;;;;;5034470;28;20678;-87
2023/06/01 00:26:09;;;;;;;6.13;5.63;;;19.50;48.90;;;;;;5035740;28;20204;-85
2023/06/01 00:28:34;;;;;;;6.00;5.50;;;19.60;48.20;;;;;;5033853;28;20267;-87
2023/06/01 00:31:00;;;;;;;6.47;5.88;;;19.70;47.80;;;;;;5033402;28;20205;-86
2023/06/01 00:33:26;;;;;;;5.57;5.18;;;19.80;47.00;;;;;;5033327;28;20181;-86
2023/06/01 00:35:52;;;;;;;6.07;5.57;;;19.90;46.90;;;;;;5033665;28;20211;-86
2023/06/01 00:38:17;;;;;;;6.15;5.63;;;19.90;47.20;;;;;;5036001;28;20175;-86
2023/06/01 00:40:43;;;;;;;6.97;5.40;;;19.80;47.70;;;;;;5036347;28;20187;-86
2023/06/01 00:43:09;;;;;;;6.35;5.55;;;19.70;47.80;;;;;;5038760;28;20188;-86
2023/06/01 00:45:37;;;;;;;5.53;5.13;;;19.50;48.60;;;;;;5038566;28;20218;-87
2023/06/01 00:48:03;;;;;;;5.72;5.30;;;19.40;48.90;;;;;;5037985;28;20169;-86
2023/06/01 00:50:29;;;;;;;5.78;5.38;;;19.40;49.10;;;;;;5036550;28;20278;-86
2023/06/01 00:52:56;;;;;;;5.85;5.28;;;19.20;49.10;;;;;;5038176;28;20436;-86
2023/06/01 00:55:22;;;;;;;5.53;5.13;;;18.90;49.60;;;;;;5019748;28;20343;-86
2023/06/01 00:57:49;;;;;;;5.35;4.90;;;18.70;50.60;;;;;;5038624;28;20220;-87
2023/06/01 01:00:15;;;;;;;5.53;4.97;;;18.30;52.10;;;;;;5035689;28;20190;-86
2023/06/01 01:02:44;;;;;;;4.95;4.55;;;17.90;53.70;;;;;;5018716;28;20551;-86
2023/06/01 01:05:10;;;;;;;5.00;4.60;;;17.60;53.40;;;;;;5018410;28;20209;-87
2023/06/01 01:08:14;;;;;;;4.90;4.50;;;17.50;53.60;;;;;;5020944;28;20198;-86
2023/06/01 01:11:00;;;;;;;6.17;4.83;;;17.40;52.90;;;;;;5035776;28;20471;-86
2023/06/01 01:13:25;;;;;;;5.17;4.77;;;17.50;53.00;;;;;;5036813;28;20185;-85
2023/06/01 01:16:04;;;;;;;5.50;4.80;;;17.60;51.50;;;;;;5040184;28;20261;-86
2023/06/01 01:18:54;;;;;;;5.20;4.70;;;17.70;52.30;;;;;;5033539;28;20257;-86
2023/06/01 01:21:29;;;;;;;4.60;4.30;;;17.80;51.10;;;;;;5039853;28;20219;-86
2023/06/01 01:24:13;;;;;;;4.90;4.50;;;17.80;50.60;;;;;;5038914;28;20182;-86
2023/06/01 01:26:44;;;;;;;5.40;4.88;;;18.00;51.60;;;;;;5038968;28;20204;-86
2023/06/01 01:29:14;;;;;;;7.53;4.60;;;18.20;51.00;;;;;;5038512;28;20161;-85
2023/06/01 01:31:40;;;;;;;4.50;4.10;;;18.20;51.10;;;;;;5037626;28;20206;-86
2023/06/01 01:34:08;;;;;;;5.60;5.10;;;18.30;50.40;;;;;;5039011;28;20198;-86
2023/06/01 01:36:35;;;;;;;5.35;4.85;;;18.50;49.70;;;;;;5039791;28;20204;-86
2023/06/01 01:39:02;;;;;;;4.82;4.32;;;18.60;48.80;;;;;;5037202;28;20212;-88
2023/06/01 01:41:27;;;;;;;5.25;4.75;;;18.50;48.60;;;;;;5040813;28;20210;-85
2023/06/01 01:43:54;;;;;;;5.88;4.97;;;18.50;49.30;;;;;;5040227;28;20177;-87
2023/06/01 01:46:25;;;;;;;5.22;4.70;;;18.40;49.10;;;;;;5041121;28;20732;-88
2023/06/01 01:49:30;;;;;;;4.88;4.47;;;18.30;50.20;;;;;;5022952;28;20234;-86
2023/06/01 01:52:06;;;;;;;5.30;4.80;;;18.30;50.90;;;;;;5039750;28;20251;-85
2023/06/01 01:54:34;;;;;;;5.00;4.60;;;18.10;50.10;;;;;;5040503;28;20188;-86
2023/06/01 01:57:01;;;;;;;5.03;4.63;;;18.20;51.20;;;;;;5033236;28;20223;-87
2023/06/01 01:59:26;;;;;;;5.25;4.85;;;18.10;50.40;;;;;;5057436;28;20237;-88
2023/06/01 02:01:52;;;;;;;5.43;4.93;;;18.10;51.20;;;;;;5056796;28;20253;-88
2023/06/01 02:04:18;;;;;;;5.50;5.00;;;18.00;51.00;;;;;;5057498;28;20239;-89
2023/06/01 02:06:44;;;;;;;7.32;5.03;;;18.10;51.80;;;;;;5053590;28;20675;-87
2023/06/01 02:09:09;;;;;;;6.65;4.80;;;18.00;52.00;;;;;;5039036;28;20189;-88
2023/06/01 02:11:36;;;;;;;5.53;4.97;;;17.90;52.00;;;;;;5039009;28;20189;-88
2023/06/01 02:14:02;;;;;;;5.20;4.70;;;17.90;52.70;;;;;;5037535;28;20219;-87
2023/06/01 02:16:27;;;;;;;7.95;4.70;;;17.80;52.50;;;;;;5038885;28;20705;-87
2023/06/01 02:18:53;;;;;;;6.53;4.57;;;17.80;52.80;;;;;;5038633;28;20190;-88
2023/06/01 02:21:19;;;;;;;5.32;4.55;;;17.80;53.20;;;;;;5037309;28;20180;-86
2023/06/01 02:23:45;;;;;;;5.18;4.88;;;18.00;52.70;;;;;;5036025;28;20665;-87
2023/06/01 02:26:11;;;;;;;6.00;4.77;;;17.90;53.00;;;;;;5035888;28;20199;-86
2023/06/01 02:28:40;;;;;;;4.80;4.40;;;17.80;53.80;;;;;;5038858;28;20173;-86
2023/06/01 02:31:06;;;;;;;5.40;4.87;;;17.40;54.80;;;;;;5019906;28;20183;-86
2023/06/01 02:33:32;;;;;;;5.57;4.97;;;17.40;55.40;;;;;;5037918;28;20199;-85
2023/06/01 02:35:58;;;;;;;5.93;4.70;;;17.50;55.50;;;;;;5038094;28;20223;-86
2023/06/01 02:38:24;;;;;;;5.33;4.83;;;17.40;55.60;;;;;;5039744;28;20615;-86
2023/06/01 02:40:50;;;;;;;5.10;4.63;;;17.30;55.90;;;;;;5038789;28;20191;-86
2023/06/01 02:43:15;;;;;;;5.10;4.30;;;17.40;55.80;;;;;;5039947;28;20191;-87
2023/06/01 02:45:41;;;;;;;6.13;4.90;;;17.50;55.80;;;;;;5038324;28;20349;-87
2023/06/01 02:48:06;;;;;;;6.70;5.03;;;17.60;55.70;;;;;;5039015;28;20176;-85
2023/06/01 02:50:32;;;;;;;4.90;4.50;;;17.80;54.70;;;;;;5038152;28;20190;-86
2023/06/01 02:52:58;;;;;;;5.22;4.75;;;17.80;54.50;;;;;;5037698;28;20198;-87
2023/06/01 02:55:23;;;;;;;6.40;4.75;;;18.00;54.00;;;;;;5038841;28;20185;-86
2023/06/01 02:57:49;;;;;;;7.82;5.32;;;18.10;53.70;;;;;;5039336;28;20582;-86
2023/06/01 03:00:18;;;;;;;5.47;4.93;;;18.20;53.50;;;;;;5034774;28;20271;-87
2023/06/01 03:02:45;;;;;;;4.78;4.43;;;18.20;53.40;;;;;;5018880;28;20177;-86
2023/06/01 03:05:17;;;;;;;5.22;4.72;;;18.30;53.10;;;;;;5019356;28;20224;-87
2023/06/01 03:07:44;;;;;;;5.75;5.07;;;18.40;52.80;;;;;;5036741;28;20262;-88
2023/06/01 03:10:10;;;;;;;5.30;4.80;;;18.20;53.10;;;;;;5036538;28;20202;-86
2023/06/01 03:12:36;;;;;;;5.05;4.65;;;18.30;53.10;;;;;;5037115;28;20234;-87
2023/06/01 03:15:04;;;;;;;5.93;5.22;;;18.30;53.30;;;;;;5036904;28;20183;-87
2023/06/01 03:17:30;;;;;;;5.68;5.00;;;18.10;53.30;;;;;;5036906;28;20366;-86
2023/06/01 03:19:55;;;;;;;5.32;4.95;;;18.30;53.40;;;;;;5036767;28;20534;-87
2023/06/01 03:22:21;;;;;;;5.63;5.00;;;18.30;53.10;;;;;;5036478;28;20205;-86
2023/06/01 03:24:50;;;;;;;5.70;4.90;;;18.20;53.60;;;;;;5036413;28;20240;-86
2023/06/01 03:27:19;;;;;;;6.05;5.28;;;18.10;53.90;;;;;;5036847;28;20201;-85
2023/06/01 03:29:45;;;;;;;5.75;5.15;;;18.00;54.60;;;;;;5036681;28;20171;-86
2023/06/01 03:32:11;;;;;;;5.35;4.85;;;17.90;55.30;;;;;;5035441;28;20276;-87
2023/06/01 03:34:36;;;;;;;7.13;5.05;;;18.10;54.50;;;;;;5037546;28;20181;-87
2023/06/01 03:37:04;;;;;;;5.43;4.68;;;18.10;54.20;;;;;;5036796;28;20204;-86
2023/06/01 03:39:33;;;;;;;5.35;4.93;;;18.20;54.10;;;;;;5037859;28;20267;-86
2023/06/01 03:41:59;;;;;;;5.78;4.40;;;18.20;54.40;;;;;;5037638;28;20168;-86
2023/06/01 03:44:25;;;;;;;8.43;5.57;;;18.10;54.00;;;;;;5037944;28;20201;-85
2023/06/01 03:46:51;;;;;;;5.30;4.80;;;18.20;54.10;;;;;;5038576;28;20222;-86
2023/06/01 03:49:16;;;;;;;6.60;5.15;;;18.20;54.00;;;;;;5037462;28;20193;-86
2023/06/01 03:51:42;;;;;;;5.68;5.15;;;18.20;54.50;;;;;;5035577;28;20276;-84
2023/06/01 03:54:08;;;;;;;5.50;5.00;;;18.10;54.70;;;;;;5037237;28;20234;-86
2023/06/01 03:56:35;;;;;;;5.53;5.13;;;18.10;55.20;;;;;;5036762;28;20205;-85
2023/06/01 03:59:00;;;;;;;7.18;5.05;;;18.20;55.00;;;;;;5036787;28;20709;-86
2023/06/01 04:01:28;;;;;;;5.75;5.20;;;18.10;55.10;;;;;;5036240;28;20177;-84
2023/06/01 04:03:55;;;;;;;6.20;4.85;;;18.20;55.30;;;;;;5037752;28;20250;-86
2023/06/01 04:06:21;;;;;;;10.65;5.28;;;18.20;55.40;;;;;;5029974;28;20204;-86
2023/06/01 04:08:49;;;;;;;8.95;4.97;;;18.00;57.00;;;;;;5037226;28;20180;-85
2023/06/01 04:11:15;;;;;;;6.32;4.72;;;17.80;57.70;;;;;;5034476;28;20181;-86
2023/06/01 04:13:41;;;;;;;16.98;6.70;;;17.70;58.40;;;;;;5036578;28;20195;-86
2023/06/01 04:16:07;;;;;;;5.57;5.05;;;17.70;59.00;;;;;;5017565;28;20200;-85
2023/06/01 04:18:33;;;;;;;5.78;5.18;;;17.50;59.80;;;;;;5035041;28;20193;-86
2023/06/01 04:20:58;;;;;;;9.20;5.15;;;17.50;59.90;;;;;;5035857;28;20274;-87
2023/06/01 04:23:24;;;;;;;7.30;5.40;;;17.50;60.00;;;;;;5036082;28;20199;-85
2023/06/01 04:25:53;;;;;;;7.55;4.93;;;17.40;60.40;;;;;;5036545;28;20635;-84
2023/06/01 04:28:20;;;;;;;6.32;4.80;;;17.50;60.40;;;;;;5035144;28;20172;-87
2023/06/01 04:30:47;;;;;;;5.40;4.90;;;17.50;60.20;;;;;;5035411;28;20219;-86
2023/06/01 04:33:13;;;;;;;6.45;4.90;;;17.50;60.40;;;;;;5037845;28;20172;-86
2023/06/01 04:35:39;;;;;;;10.85;5.05;;;17.60;60.30;;;;;;5037198;28;20211;-86
2023/06/01 04:38:05;;;;;;;5.82;5.13;;;17.50;60.70;;;;;;5037772;28;20222;-89
2023/06/01 04:40:31;;;;;;;6.50;5.65;;;17.50;61.10;;;;;;5036222;28;20242;-88
2023/06/01 04:42:56;;;;;;;9.35;8.35;;;17.40;61.70;;;;;;5008784;28;20598;-85
2023/06/01 04:45:25;;;;;;;6.82;5.97;;;17.40;61.90;;;;;;5037548;28;20293;-89
2023/06/01 04:47:51;;;;;;;5.35;4.85;;;17.40;63.00;;;;;;5038448;28;20243;-87
2023/06/01 04:50:17;;;;;;;8.02;7.32;;;17.30;64.40;;;;;;5039955;28;20190;-88
2023/06/01 04:52:43;;;;;;;7.60;7.00;;;17.20;65.50;;;;;;5040943;28;20206;-87
2023/06/01 04:55:12;;;;;;;5.87;5.37;;;17.00;66.80;;;;;;5041085;28;20654;-87
2023/06/01 04:57:38;;;;;;;6.70;5.03;;;17.00;67.20;;;;;;5023364;28;20213;-88
2023/06/01 05:00:10;;;;;;;7.93;5.50;;;16.90;67.90;;;;;;5040994;28;20188;-88
2023/06/01 05:02:37;;;;;;;6.13;4.63;;;17.00;67.00;;;;;;5038825;28;20345;-87
2023/06/01 05:05:04;;;;;;;5.72;5.05;;;17.10;66.90;;;;;;5039167;28;20228;-90
2023/06/01 05:07:30;;;;;;;5.87;4.80;;;17.20;66.50;;;;;;5037033;28;20215;-88
2023/06/01 05:09:55;;;;;;;6.93;4.70;;;17.20;64.80;;;;;;5018913;28;20177;-87
2023/06/01 05:12:21;;;;;;;6.00;4.70;;;17.20;64.70;;;;;;5023283;28;20235;-88
2023/06/01 05:14:47;;;;;;;5.23;4.73;;;17.10;64.70;;;;;;5037858;28;20508;-88
2023/06/01 05:17:12;;;;;;;6.67;4.67;;;17.20;64.90;;;;;;5037805;28;20239;-87
2023/06/01 05:19:38;;;;;;;5.13;4.63;;;17.20;63.90;;;;;;5039869;28;20266;-87
2023/06/01 05:22:04;;;;;;;5.73;4.67;;;17.30;63.90;;;;;;5040378;28;20547;-86
2023/06/01 05:24:30;;;;;;;5.60;5.10;;;17.30;63.00;;;;;;5021941;28;20217;-87
2023/06/01 05:26:56;;;;;;;5.73;5.00;;;17.50;62.50;;;;;;5039865;28;20211;-87
2023/06/01 05:29:21;;;;;;;5.60;5.00;;;17.40;61.60;;;;;;5040410;28;20207;-87
2023/06/01 05:31:49;;;;;;;5.70;4.80;;;17.40;61.70;;;;;;5039830;28;20201;-86
2023/06/01 05:34:15;;;;;;;7.90;4.93;;;17.40;61.80;;;;;;5039704;28;20189;-86
2023/06/01 05:36:40;;;;;;;7.20;5.37;;;17.50;62.10;;;;;;5041116;28;20761;-89
2023/06/01 05:39:06;;;;;;;5.40;4.90;;;17.50;61.50;;;;;;5039723;28;20209;-88
2023/06/01 05:41:32;;;;;;;6.87;5.23;;;17.60;61.60;;;;;;5039948;28;20182;-89
2023/06/01 05:43:57;;;;;;;7.20;5.43;;;17.70;61.40;;;;;;5041063;28;20246;-88
2023/06/01 05:46:24;;;;;;;6.83;5.17;;;17.80;60.60;;;;;;5041486;28;20197;-87
2023/06/01 05:48:50;;;;;;;5.25;4.78;;;17.90;60.00;;;;;;5041085;28;20183;-88
2023/06/01 05:51:17;;;;;;;8.40;5.33;;;18.00;59.20;;;;;;5040611;28;20667;-88
2023/06/01 05:53:42;;;;;;;5.63;5.13;;;18.00;58.40;;;;;;5040782;28;20252;-89
2023/06/01 05:56:08;;;;;;;7.13;5.50;;;18.10;58.30;;;;;;5039076;28;20193;-88
2023/06/01 05:58:34;;;;;;;6.57;4.97;;;18.10;58.10;;;;;;5039768;28;20179;-90
2023/06/01 06:01:00;;;;;;;6.45;5.03;;;18.10;57.80;;;;;;5036556;28;20196;-86
2023/06/01 06:03:26;;;;;;;5.30;4.80;;;18.20;57.50;;;;;;5041199;28;20670;-88
2023/06/01 06:05:52;;;;;;;9.50;5.35;;;18.30;57.20;;;;;;5005940;28;20223;-89
2023/06/01 06:08:17;;;;;;;5.90;5.28;;;18.40;57.00;;;;;;5031929;28;20237;-88
2023/06/01 06:10:43;;;;;;;7.80;5.30;;;18.50;57.10;;;;;;5029985;28;20195;-88
2023/06/01 06:13:09;;;;;;;5.82;4.88;;;18.50;57.20;;;;;;5014851;28;20196;-91
2023/06/01 06:15:35;;;;;;;5.45;4.95;;;18.50;57.10;;;;;;5033477;28;20273;-86
2023/06/01 06:18:00;;;;;;;7.05;5.43;;;18.60;56.90;;;;;;5032309;28;20218;-89
2023/06/01 06:20:26;;;;;;;5.72;5.20;;;18.80;56.40;;;;;;5027634;28;20214;-91
2023/06/01 06:22:52;;;;;;;5.50;5.00;;;18.80;56.20;;;;;;5033503;28;20557;-89
2023/06/01 06:25:19;;;;;;;6.00;5.45;;;18.90;55.60;;;;;;5030276;28;20222;-89
2023/06/01 06:27:46;;;;;;;8.30;5.60;;;19.00;55.00;;;;;;5029488;28;20957;-87
2023/06/01 06:30:12;;;;;;;5.53;5.03;;;19.10;54.60;;;;;;5030948;28;20344;-89
2023/06/01 06:32:38;;;;;;;5.15;4.75;;;19.20;54.20;;;;;;5031514;28;20232;-91
2023/06/01 06:35:04;;;;;;;5.28;4.88;;;19.30;53.10;;;;;;5032280;28;20212;-89
2023/06/01 06:37:30;;;;;;;5.32;4.82;;;19.40;53.40;;;;;;5033305;28;20686;-89
2023/06/01 06:39:56;;;;;;;5.38;4.88;;;19.50;52.90;;;;;;5032326;28;20824;-89
2023/06/01 06:42:23;;;;;;;5.50;5.00;;;19.50;52.40;;;;;;5032947;28;21175;-91
2023/06/01 06:44:48;;;;;;;5.05;4.55;;;19.60;50.20;;;;;;5033833;28;20211;-90
2023/06/01 06:47:18;;;;;;;6.75;4.95;;;19.70;49.80;;;;;;5036652;28;20189;-88
2023/06/01 06:49:44;;;;;;;6.05;4.90;;;19.70;47.80;;;;;;5031526;28;20484;-88
2023/06/01 06:52:10;;;;;;;5.20;4.85;;;19.80;47.60;;;;;;5035257;28;20222;-90
2023/06/01 06:54:38;;;;;;;5.57;5.00;;;19.90;47.80;;;;;;5033379;28;20224;-89
2023/06/01 06:57:04;;;;;;;5.63;5.22;;;20.10;48.00;;;;;;5030357;28;20627;-90
2023/06/01 06:59:30;;;;;;;6.25;5.63;;;20.30;47.00;;;;;;5030912;28;20188;-90
2023/06/01 07:01:56;;;;;;;5.10;4.70;;;20.30;46.50;;;;;;5033962;28;20181;-88
2023/06/01 07:04:21;;;;;;;6.82;5.10;;;20.40;47.00;;;;;;5032352;28;20594;-89
2023/06/01 07:06:47;;;;;;;5.65;5.20;;;20.50;46.90;;;;;;5014283;28;20239;-90
2023/06/01 07:09:13;;;;;;;5.75;5.25;;;20.30;46.10;;;;;;5016428;28;20180;-91
2023/06/01 07:11:42;;;;;;;5.40;5.00;;;20.30;46.50;;;;;;5031789;28;20189;-90
2023/06/01 07:14:08;;;;;;;5.55;5.05;;;20.40;47.20;;;;;;5032521;28;20192;-88
2023/06/01 07:16:34;;;;;;;5.22;4.68;;;20.60;46.10;;;;;;5032847;28;20200;-91
2023/06/01 07:19:00;;;;;;;5.22;4.80;;;20.60;45.70;;;;;;5030020;28;20859;-90
2023/06/01 07:21:25;;;;;;;7.43;5.45;;;20.50;46.30;;;;;;5030395;28;20185;-88
2023/06/01 07:23:51;;;;;;;5.40;4.90;;;20.60;46.40;;;;;;5030811;28;20188;-91
2023/06/01 07:26:17;;;;;;;6.13;5.53;;;20.60;46.10;;;;;;5030638;28;20221;-87
2023/06/01 07:28:42;;;;;;;5.88;5.28;;;20.70;45.80;;;;;;5026694;28;20181;-91
2023/06/01 07:31:08;;;;;;;6.13;4.95;;;20.70;45.50;;;;;;5028870;28;20181;-89
2023/06/01 07:33:35;;;;;;;6.03;5.40;;;20.70;45.90;;;;;;5028023;28;20188;-88
2023/06/01 07:36:02;;;;;;;5.93;4.90;;;20.70;45.40;;;;;;5027917;28;20216;-88
2023/06/01 07:38:27;;;;;;;6.15;5.60;;;20.90;45.90;;;;;;5011498;28;20192;-88
2023/06/01 07:40:53;;;;;;;7.05;5.47;;;21.20;44.10;;;;;;5032773;28;20181;-87
2023/06/01 07:43:19;;;;;;;6.57;6.10;;;21.40;43.30;;;;;;5028709;28;20195;-89
2023/06/01 07:45:44;;;;;;;6.82;6.05;;;21.50;43.20;;;;;;5028764;28;20330;-89
2023/06/01 07:48:10;;;;;;;6.43;5.78;;;21.60;42.70;;;;;;5030698;28;20196;-90
2023/06/01 07:50:37;;;;;;;7.10;5.93;;;21.70;41.90;;;;;;5009324;28;20188;-88
2023/06/01 07:53:03;;;;;;;7.10;6.38;;;21.90;42.00;;;;;;5025992;28;20185;-90
2023/06/01 07:55:29;;;;;;;7.97;6.10;;;21.90;42.10;;;;;;5027558;28;20189;-92
2023/06/01 07:57:54;;;;;;;6.95;6.35;;;22.00;41.30;;;;;;5030106;28;20200;-88
2023/06/01 08:00:20;;;;;;;6.82;6.28;;;22.00;41.90;;;;;;5020722;28;20256;-88
2023/06/01 08:02:46;;;;;;;7.32;6.40;;;22.10;42.40;;;;;;5026571;28;20259;-88
2023/06/01 08:05:12;;;;;;;6.80;6.30;;;22.20;41.30;;;;;;5025852;28;20247;-89
2023/06/01 08:07:42;;;;;;;7.75;6.80;;;22.40;41.10;;;;;;5024883;28;20213;-89
2023/06/01 08:10:08;;;;;;;7.13;6.53;;;22.50;40.70;;;;;;5026825;28;20347;-91
2023/06/01 08:12:35;;;;;;;6.70;6.18;;;22.50;40.80;;;;;;5028274;28;20207;-89
2023/06/01 08:15:01;;;;;;;7.57;6.78;;;22.60;40.70;;;;;;5029054;28;20487;-90
2023/06/01 08:17:27;;;;;;;7.38;6.88;;;22.80;40.10;;;;;;5030104;28;20204;-89
2023/06/01 08:19:53;;;;;;;8.05;7.07;;;22.90;40.00;;;;;;5028610;28;20188;-91
2023/06/01 08:22:20;;;;;;;6.72;6.22;;;22.90;39.70;;;;;;5028855;28;20191;-90
2023/06/01 08:24:47;;;;;;;8.27;6.70;;;23.10;40.00;;;;;;5031838;28;20216;-90
2023/06/01 08:27:22;;;;;;;8.48;7.63;;;23.20;39.70;;;;;;5034648;28;20973;-87
2023/06/01 08:29:49;;;;;;;8.82;8.13;;;23.40;39.30;;;;;;5015456;28;20208;-90
2023/06/01 08:32:15;;;;;;;8.40;7.72;;;23.50;38.70;;;;;;5031610;28;20181;-90
2023/06/01 08:34:43;;;;;;;9.38;8.57;;;23.70;38.90;;;;;;5031489;28;20196;-87
2023/06/01 08:37:09;;;;;;;9.73;9.13;;;23.80;38.40;;;;;;5033229;28;20804;-88
2023/06/01 08:39:35;;;;;;;9.70;8.90;;;23.90;38.10;;;;;;5013773;28;20197;-89
2023/06/01 08:42:23;;;;;;;9.95;9.07;;;24.00;37.70;;;;;;5031220;28;20188;-88
2023/06/01 08:44:53;;;;;;;9.77;9.18;;;24.00;37.30;;;;;;5010861;28;20644;-87
2023/06/01 08:47:19;;;;;;;9.10;8.48;;;23.90;37.50;;;;;;5014997;28;20609;-89
2023/06/01 08:49:45;;;;;;;9.80;9.10;;;24.00;37.30;;;;;;5029723;28;20181;-89
2023/06/01 08:52:13;;;;;;;10.15;9.30;;;24.10;37.50;;;;;;5011413;28;20196;-89
2023/06/01 08:54:39;;;;;;;10.60;9.68;;;24.20;37.20;;;;;;5032386;28;20250;-89
2023/06/01 08:57:09;;;;;;;10.77;9.90;;;24.30;37.00;;;;;;5032510;28;20595;-88
2023/06/01 08:59:36;;;;;;;11.40;10.70;;;24.40;37.00;;;;;;5028507;28;20192;-89
2023/06/01 09:02:02;;;;;;;12.27;11.45;;;24.60;36.50;;;;;;5032156;28;20192;-88
2023/06/01 09:04:30;;;;;;;12.02;11.15;;;24.70;35.70;;;;;;5032846;28;20208;-89
2023/06/01 09:06:56;;;;;;;11.73;10.90;;;24.70;36.30;;;;;;5031822;28;20227;-89
2023/06/01 09:09:22;;;;;;;11.40;10.60;;;25.10;36.60;;;;;;5029634;28;20181;-90
2023/06/01 09:11:48;;;;;;;12.43;11.48;;;25.30;37.30;;;;;;5033871;28;20176;-87
2023/06/01 09:14:23;;;;;;;11.95;10.85;;;25.30;37.80;;;;;;5032038;28;20526;-90
2023/06/01 09:16:50;;;;;;;10.93;10.00;;;25.10;38.20;;;;;;5030888;28;20291;-88
2023/06/01 09:19:18;;;;;;;10.40;9.65;;;25.10;37.80;;;;;;5012934;28;20193;-91
2023/06/01 09:22:00;;;;;;;10.57;9.98;;;25.10;38.00;;;;;;5030183;28;20177;-90
2023/06/01 09:24:26;;;;;;;11.18;10.38;;;25.30;37.30;;;;;;5031667;28;20205;-88
2023/06/01 09:27:00;;;;;;;11.43;10.63;;;25.40;37.60;;;;;;5029132;28;20682;-89
2023/06/01 09:29:26;;;;;;;10.98;10.25;;;25.50;37.30;;;;;;5029433;28;20239;-90
2023/06/01 09:31:52;;;;;;;10.27;9.57;;;25.30;37.30;;;;;;5033779;28;20212;-93
2023/06/01 09:34:19;;;;;;;11.45;10.85;;;25.60;37.10;;;;;;5030240;28;20181;-90
2023/06/01 09:36:51;;;;;;;11.02;10.32;;;25.60;37.10;;;;;;5032610;28;20218;-90
2023/06/01 09:39:19;;;;;;;11.60;10.90;;;25.80;36.80;;;;;;5031861;28;20189;-88
2023/06/01 09:41:55;;;;;;;12.57;11.55;;;26.00;36.90;;;;;;5041360;28;20197;-88
2023/06/01 09:44:31;;;;;;;11.85;11.07;;;26.00;36.40;;;;;;5031924;28;20955;-89
2023/06/01 09:46:59;;;;;;;12.70;11.60;;;25.90;36.30;;;;;;5032479;28;20204;-90
2023/06/01 09:49:32;;;;;;;11.90;11.00;;;26.00;36.70;;;;;;5032141;28;20231;-90
2023/06/01 09:52:12;;;;;;;12.48;11.52;;;26.10;36.80;;;;;;5032690;28;20181;-92
2023/06/01 09:54:39;;;;;;;13.52;12.68;;;26.50;36.30;;;;;;5033190;28;20212;-90
2023/06/01 09:57:06;;;;;;;14.10;13.20;;;26.60;35.50;;;;;;5031601;28;20215;-91
2023/06/01 09:59:43;;;;;;;12.45;11.75;;;26.20;36.00;;;;;;5029911;28;20173;-90
2023/06/01 10:02:20;;;;;;;14.20;13.40;;;26.40;36.40;;;;;;5035681;28;20185;-92
2023/06/01 10:04:58;;;;;;;13.40;12.30;;;26.50;35.20;;;;;;5030992;28;20193;-89
2023/06/01 10:07:26;;;;;;;13.35;12.23;;;26.40;35.50;;;;;;5031892;28;20213;-88
2023/06/01 10:09:55;;;;;;;13.45;12.63;;;26.50;35.30;;;;;;5033943;28;20173;-92
2023/06/01 10:12:22;;;;;;;14.23;13.32;;;26.60;35.10;;;;;;5035650;28;20181;-88
2023/06/01 10:14:50;;;;;;;14.10;13.10;;;26.70;34.90;;;;;;5032589;28;20285;-90
2023/06/01 10:17:16;;;;;;;16.27;15.05;;;27.00;35.00;;;;;;5031960;28;20212;-92
2023/06/01 10:19:42;;;;;;;16.58;15.77;;;27.40;34.30;;;;;;5033199;28;20196;-91
2023/06/01 10:22:10;;;;;;;18.73;17.70;;;27.50;34.50;;;;;;5012478;28;20268;-90
2023/06/01 10:24:40;;;;;;;18.38;17.48;;;27.50;33.70;;;;;;5015178;28;20279;-89
2023/06/01 10:27:26;;;;;;;17.73;16.73;;;27.70;33.20;;;;;;5014997;28;20227;-91
2023/06/01 10:29:53;;;;;;;17.63;16.58;;;28.00;34.40;;;;;;5029603;28;20258;-92
2023/06/01 10:32:37;;;;;;;17.05;15.95;;;28.30;32.60;;;;;;5032252;28;20728;-88
2023/06/01 10:35:07;;;;;;;16.73;15.73;;;28.30;32.50;;;;;;5033367;28;20545;-88
2023/06/01 10:37:33;;;;;;;16.23;15.38;;;28.30;32.30;;;;;;5033217;28;20216;-87
2023/06/01 10:40:18;;;;;;;16.75;15.65;;;28.40;32.20;;;;;;5030556;28;20192;-87
2023/06/01 10:42:45;;;;;;;16.48;15.65;;;28.70;32.20;;;;;;5031444;28;20189;-91
2023/06/01 10:45:29;;;;;;;17.13;16.23;;;29.00;30.70;;;;;;5012830;28;20208;-89
2023/06/01 10:47:55;;;;;;;17.55;16.55;;;29.20;30.60;;;;;;5030333;28;20251;-88
2023/06/01 10:50:23;;;;;;;17.85;17.05;;;29.30;29.80;;;;;;5026621;28;20678;-88
2023/06/01 10:52:50;;;;;;;17.08;16.23;;;29.20;30.20;;;;;;5028886;28;20173;-92
2023/06/01 10:55:16;;;;;;;16.65;15.75;;;28.90;30.20;;;;;;5030024;28;20189;-89
2023/06/01 10:57:45;;;;;;;17.60;16.55;;;28.90;30.20;;;;;;5029251;28;20211;-91
2023/06/01 11:00:16;;;;;;;17.77;16.67;;;29.20;30.00;;;;;;5030504;28;20252;-89
2023/06/01 11:02:48;;;;;;;18.60;17.50;;;29.50;29.90;;;;;;5032105;28;20184;-90
2023/06/01 11:05:43;;;;;;;19.02;18.02;;;30.00;29.20;;;;;;5031031;28;20290;-89
2023/06/01 11:08:21;;;;;;;19.05;17.98;;;30.00;28.60;;;;;;5031641;28;20177;-90
2023/06/01 11:10:53;;;;;;;20.30;19.33;;;30.00;28.90;;;;;;5011696;28;20219;-88
2023/06/01 11:13:21;;;;;;;19.08;17.92;;;30.00;28.10;;;;;;5031743;28;20616;-90
2023/06/01 11:16:07;;;;;;;18.88;17.75;;;30.40;28.20;;;;;;5030934;28;20555;-90
2023/06/01 11:19:00;;;;;;;19.15;18.13;;;30.00;29.10;;;;;;5030854;28;20177;-88
2023/06/01 11:21:29;;;;;;;20.52;18.92;;;29.80;29.60;;;;;;5029208;28;20173;-89
2023/06/01 11:23:57;;;;;;;19.92;18.92;;;29.90;28.90;;;;;;5028089;28;20255;-88
2023/06/01 11:26:27;;;;;;;21.20;20.10;;;29.80;27.90;;;;;;5028249;28;20760;-88
2023/06/01 11:29:06;;;;;;;22.13;21.13;;;30.20;26.70;;;;;;5029205;28;20563;-89
2023/06/01 11:31:37;;;;;;;41.30;27.02;;;30.10;26.80;;;;;;5030255;28;20176;-82
2023/06/01 11:34:03;;;;;;;22.08;20.65;;;30.30;26.90;;;;;;5029251;28;20189;-86
2023/06/01 11:36:29;;;;;;;23.08;21.17;;;30.50;26.50;;;;;;5029609;28;20220;-88
2023/06/01 11:38:56;;;;;;;22.27;20.77;;;30.40;26.90;;;;;;5012530;28;20188;-89
2023/06/01 11:41:23;;;;;;;22.83;21.15;;;30.40;27.10;;;;;;5029819;28;20204;-88
2023/06/01 11:43:55;;;;;;;23.35;21.85;;;30.60;26.90;;;;;;5027702;28;20189;-89
2023/06/01 11:46:21;;;;;;;23.15;22.17;;;31.10;26.40;;;;;;5024972;28;20223;-91
2023/06/01 11:49:01;;;;;;;23.60;22.70;;;30.90;25.80;;;;;;5029521;28;20203;-88
2023/06/01 11:51:39;;;;;;;24.70;23.65;;;31.00;25.80;;;;;;5029578;28;20175;-90
2023/06/01 11:54:05;;;;;;;25.77;24.50;;;31.50;25.80;;;;;;5025651;28;20627;-88
2023/06/01 11:56:33;;;;;;;24.98;23.60;;;31.80;25.60;;;;;;5030083;28;20211;-91
2023/06/01 11:59:10;;;;;;;25.20;23.90;;;31.90;25.10;;;;;;5029175;28;20183;-90
2023/06/01 12:01:42;;;;;;;23.45;22.30;;;31.70;24.80;;;;;;5030411;28;20188;-91
2023/06/01 12:04:15;;;;;;;24.98;23.50;;;31.50;25.10;;;;;;5028239;28;20736;-89
2023/06/01 12:06:41;;;;;;;24.70;23.42;;;31.60;25.60;;;;;;5009258;28;20220;-92
2023/06/01 12:09:07;;;;;;;23.77;22.73;;;31.80;25.20;;;;;;5027618;28;20185;-91
2023/06/01 12:11:34;;;;;;;23.63;22.58;;;31.80;24.50;;;;;;5027918;28;20185;-89
2023/06/01 12:14:01;;;;;;;23.50;22.40;;;31.70;24.80;;;;;;5027790;28;20258;-92
2023/06/01 12:16:58;;;;;;;24.40;23.27;;;31.90;24.60;;;;;;5014423;28;20878;-90
2023/06/01 12:19:25;;;;;;;24.20;23.10;;;32.00;24.90;;;;;;5027791;28;20165;-90
2023/06/01 12:21:54;;;;;;;24.55;23.45;;;32.30;25.00;;;;;;5030989;28;20376;-90
2023/06/01 12:24:32;;;;;;;24.75;23.48;;;32.60;24.30;;;;;;5028323;28;20189;-90
2023/06/01 12:26:59;;;;;;;26.00;24.90;;;32.10;25.40;;;;;;5013187;28;20724;-92
2023/06/01 12:29:38;;;;;;;24.08;22.98;;;32.80;24.80;;;;;;5028159;28;20702;-89
2023/06/01 12:32:04;;;;;;;23.77;22.73;;;32.60;23.80;;;;;;5030497;28;20185;-89
2023/06/01 12:34:30;;;;;;;25.73;24.67;;;32.30;24.30;;;;;;5029369;28;20666;-90
2023/06/01 12:36:56;;;;;;;24.60;23.58;;;32.60;24.90;;;;;;5029575;28;20216;-90
2023/06/01 12:39:40;;;;;;;23.65;22.55;;;32.20;24.10;;;;;;5028759;28;20181;-89
2023/06/01 12:42:06;;;;;;;24.65;23.45;;;32.40;24.30;;;;;;5028775;28;20219;-89
2023/06/01 12:44:33;;;;;;;24.52;23.52;;;32.60;24.20;;;;;;5010452;28;20694;-91
2023/06/01 12:47:00;;;;;;;24.70;23.60;;;32.70;23.90;;;;;;5029580;28;20770;-90